Saint-Antonin, Canada
Current Conditions -  °F | °C
As of 6:53 AM on Monday 20 Oct 2014 (Local Time) from KFVE Reporting Station
Clear Clear  
Wind Chill: 18°   Ceiling: Unl
Heat Index: 29°   Visibility: 10mi
Dew Point: 23°   Wind: 14mph
Humidity: 78%   Direction: 290°WNW
Pressure: 29.73"   Gusts: NA
Location:  47.77°N, 69.48°W
Report Text: KFVE 201053Z AUTO 29012KT 10SM CLR M02/M05 A2973 RMK AO2 SLP075 T10171050
Loading
Personal Weather Stations






























Interactive Weather Map
Tropical Storm Tracking
New forecast layout! Learn more

10-Day Weather Forecast

Advertisements
Track Severe Weather on mobile